sensor_id;sensor_type;location;lat;lon;timestamp;P1;durP1;ratioP1;P2;durP2;ratioP2
11671;SDS011;5892;43.412;24.612;2023-04-30T00:00:27;7.43;;;5.40;;
11671;SDS011;5892;43.412;24.612;2023-04-30T00:02:54;7.70;;;5.47;;
11671;SDS011;5892;43.412;24.612;2023-04-30T00:05:23;10.50;;;5.53;;
11671;SDS011;5892;43.412;24.612;2023-04-30T00:07:50;8.07;;;5.60;;
11671;SDS011;5892;43.412;24.612;2023-04-30T00:10:17;11.43;;;5.70;;
11671;SDS011;5892;43.412;24.612;2023-04-30T00:12:44;7.80;;;5.60;;
11671;SDS011;5892;43.412;24.612;2023-04-30T00:15:11;15.50;;;7.77;;
11671;SDS011;5892;43.412;24.612;2023-04-30T00:17:38;9.00;;;5.83;;
11671;SDS011;5892;43.412;24.612;2023-04-30T00:20:05;7.20;;;5.30;;
11671;SDS011;5892;43.412;24.612;2023-04-30T00:22:34;9.30;;;5.70;;
11671;SDS011;5892;43.412;24.612;2023-04-30T00:25:01;9.70;;;6.30;;
11671;SDS011;5892;43.412;24.612;2023-04-30T00:27:28;8.10;;;6.13;;
11671;SDS011;5892;43.412;24.612;2023-04-30T00:29:55;7.43;;;5.63;;
11671;SDS011;5892;43.412;24.612;2023-04-30T00:32:22;9.17;;;6.10;;
11671;SDS011;5892;43.412;24.612;2023-04-30T00:34:49;8.77;;;6.17;;
11671;SDS011;5892;43.412;24.612;2023-04-30T00:37:16;7.27;;;5.97;;
11671;SDS011;5892;43.412;24.612;2023-04-30T00:39:44;46.20;;;17.03;;
11671;SDS011;5892;43.412;24.612;2023-04-30T00:42:11;9.07;;;5.83;;
11671;SDS011;5892;43.412;24.612;2023-04-30T00:44:38;12.13;;;6.73;;
11671;SDS011;5892;43.412;24.612;2023-04-30T00:47:05;9.37;;;6.10;;
11671;SDS011;5892;43.412;24.612;2023-04-30T00:49:32;7.40;;;5.20;;
11671;SDS011;5892;43.412;24.612;2023-04-30T00:51:59;10.60;;;5.73;;
11671;SDS011;5892;43.412;24.612;2023-04-30T00:54:27;8.73;;;5.83;;
11671;SDS011;5892;43.412;24.612;2023-04-30T00:56:56;5.40;;;4.90;;
11671;SDS011;5892;43.412;24.612;2023-04-30T00:59:23;8.63;;;4.80;;
11671;SDS011;5892;43.412;24.612;2023-04-30T01:01:50;5.80;;;5.20;;
11671;SDS011;5892;43.412;24.612;2023-04-30T01:04:18;5.97;;;4.90;;
11671;SDS011;5892;43.412;24.612;2023-04-30T01:06:45;6.27;;;5.00;;
11671;SDS011;5892;43.412;24.612;2023-04-30T01:09:12;5.53;;;4.63;;
11671;SDS011;5892;43.412;24.612;2023-04-30T01:11:44;7.07;;;5.10;;
11671;SDS011;5892;43.412;24.612;2023-04-30T01:14:21;5.63;;;5.00;;
11671;SDS011;5892;43.412;24.612;2023-04-30T01:16:56;5.30;;;4.80;;
11671;SDS011;5892;43.412;24.612;2023-04-30T01:19:34;7.43;;;4.90;;
11671;SDS011;5892;43.412;24.612;2023-04-30T01:22:08;9.77;;;6.10;;
11671;SDS011;5892;43.412;24.612;2023-04-30T01:24:48;6.37;;;5.00;;
11671;SDS011;5892;43.412;24.612;2023-04-30T01:30:27;5.47;;;4.60;;
11671;SDS011;5892;43.412;24.612;2023-04-30T01:32:55;7.60;;;5.07;;
11671;SDS011;5892;43.412;24.612;2023-04-30T01:35:26;6.30;;;5.10;;
11671;SDS011;5892;43.412;24.612;2023-04-30T01:38:11;8.77;;;5.50;;
11671;SDS011;5892;43.412;24.612;2023-04-30T01:40:55;6.20;;;4.97;;
11671;SDS011;5892;43.412;24.612;2023-04-30T01:43:28;6.27;;;4.67;;
11671;SDS011;5892;43.412;24.612;2023-04-30T01:46:07;5.53;;;4.97;;
11671;SDS011;5892;43.412;24.612;2023-04-30T01:48:46;5.30;;;4.80;;
11671;SDS011;5892;43.412;24.612;2023-04-30T01:51:22;7.63;;;5.07;;
11671;SDS011;5892;43.412;24.612;2023-04-30T01:53:56;5.67;;;5.00;;
11671;SDS011;5892;43.412;24.612;2023-04-30T01:56:29;9.60;;;5.43;;
11671;SDS011;5892;43.412;24.612;2023-04-30T01:59:02;9.07;;;5.67;;
11671;SDS011;5892;43.412;24.612;2023-04-30T02:01:33;6.93;;;5.33;;
11671;SDS011;5892;43.412;24.612;2023-04-30T02:04:00;7.53;;;5.47;;
11671;SDS011;5892;43.412;24.612;2023-04-30T02:06:28;7.97;;;5.60;;
11671;SDS011;5892;43.412;24.612;2023-04-30T02:08:55;6.33;;;5.17;;
11671;SDS011;5892;43.412;24.612;2023-04-30T02:11:27;9.17;;;5.70;;
11671;SDS011;5892;43.412;24.612;2023-04-30T02:13:54;5.87;;;5.27;;
11671;SDS011;5892;43.412;24.612;2023-04-30T02:16:22;6.43;;;5.60;;
11671;SDS011;5892;43.412;24.612;2023-04-30T02:18:50;6.53;;;5.50;;
11671;SDS011;5892;43.412;24.612;2023-04-30T02:21:17;6.50;;;5.67;;
11671;SDS011;5892;43.412;24.612;2023-04-30T02:23:44;7.93;;;5.60;;
11671;SDS011;5892;43.412;24.612;2023-04-30T02:26:11;5.77;;;5.17;;
11671;SDS011;5892;43.412;24.612;2023-04-30T02:28:38;7.30;;;5.40;;
11671;SDS011;5892;43.412;24.612;2023-04-30T02:31:06;7.03;;;5.20;;
11671;SDS011;5892;43.412;24.612;2023-04-30T02:33:33;10.03;;;6.40;;
11671;SDS011;5892;43.412;24.612;2023-04-30T02:36:01;8.00;;;6.07;;
11671;SDS011;5892;43.412;24.612;2023-04-30T02:38:28;18.20;;;8.17;;
11671;SDS011;5892;43.412;24.612;2023-04-30T02:40:55;12.47;;;7.77;;
11671;SDS011;5892;43.412;24.612;2023-04-30T02:43:22;6.27;;;5.23;;
11671;SDS011;5892;43.412;24.612;2023-04-30T02:45:49;17.87;;;9.40;;
11671;SDS011;5892;43.412;24.612;2023-04-30T02:48:16;9.30;;;6.00;;
11671;SDS011;5892;43.412;24.612;2023-04-30T02:50:42;9.60;;;5.33;;
11671;SDS011;5892;43.412;24.612;2023-04-30T02:53:12;7.00;;;5.50;;
11671;SDS011;5892;43.412;24.612;2023-04-30T02:55:39;9.07;;;5.50;;
11671;SDS011;5892;43.412;24.612;2023-04-30T02:58:06;8.27;;;5.20;;
11671;SDS011;5892;43.412;24.612;2023-04-30T03:00:33;6.37;;;5.27;;
11671;SDS011;5892;43.412;24.612;2023-04-30T03:03:00;6.63;;;5.10;;
11671;SDS011;5892;43.412;24.612;2023-04-30T03:05:27;7.73;;;5.40;;
11671;SDS011;5892;43.412;24.612;2023-04-30T03:07:55;6.00;;;5.30;;
11671;SDS011;5892;43.412;24.612;2023-04-30T03:10:23;8.23;;;5.30;;
11671;SDS011;5892;43.412;24.612;2023-04-30T03:12:51;6.17;;;5.23;;
11671;SDS011;5892;43.412;24.612;2023-04-30T03:15:18;7.00;;;4.77;;
11671;SDS011;5892;43.412;24.612;2023-04-30T03:17:45;25.73;;;10.77;;
11671;SDS011;5892;43.412;24.612;2023-04-30T03:20:12;7.33;;;5.83;;
11671;SDS011;5892;43.412;24.612;2023-04-30T03:22:41;6.50;;;5.10;;
11671;SDS011;5892;43.412;24.612;2023-04-30T03:25:09;6.50;;;5.53;;
11671;SDS011;5892;43.412;24.612;2023-04-30T03:27:37;7.90;;;5.63;;
11671;SDS011;5892;43.412;24.612;2023-04-30T03:30:04;8.20;;;5.30;;
11671;SDS011;5892;43.412;24.612;2023-04-30T03:32:32;7.03;;;5.23;;
11671;SDS011;5892;43.412;24.612;2023-04-30T03:34:59;6.03;;;5.13;;
11671;SDS011;5892;43.412;24.612;2023-04-30T03:37:28;6.47;;;5.70;;
11671;SDS011;5892;43.412;24.612;2023-04-30T03:39:54;7.40;;;5.50;;
11671;SDS011;5892;43.412;24.612;2023-04-30T03:42:21;6.60;;;5.10;;
11671;SDS011;5892;43.412;24.612;2023-04-30T03:44:50;6.63;;;5.50;;
11671;SDS011;5892;43.412;24.612;2023-04-30T03:47:17;13.23;;;5.90;;
11671;SDS011;5892;43.412;24.612;2023-04-30T03:49:44;7.70;;;5.70;;
11671;SDS011;5892;43.412;24.612;2023-04-30T03:52:18;6.77;;;5.63;;
11671;SDS011;5892;43.412;24.612;2023-04-30T03:54:46;7.37;;;5.30;;
11671;SDS011;5892;43.412;24.612;2023-04-30T03:57:13;6.87;;;5.50;;
11671;SDS011;5892;43.412;24.612;2023-04-30T03:59:40;7.97;;;5.60;;
11671;SDS011;5892;43.412;24.612;2023-04-30T04:02:08;10.80;;;5.60;;
11671;SDS011;5892;43.412;24.612;2023-04-30T04:04:35;7.87;;;5.60;;
11671;SDS011;5892;43.412;24.612;2023-04-30T04:07:02;20.57;;;9.17;;
11671;SDS011;5892;43.412;24.612;2023-04-30T04:09:32;9.70;;;6.27;;
11671;SDS011;5892;43.412;24.612;2023-04-30T04:11:59;7.20;;;4.70;;
11671;SDS011;5892;43.412;24.612;2023-04-30T04:14:27;6.77;;;4.80;;
11671;SDS011;5892;43.412;24.612;2023-04-30T04:16:55;12.77;;;5.47;;
11671;SDS011;5892;43.412;24.612;2023-04-30T04:19:25;6.87;;;5.07;;
11671;SDS011;5892;43.412;24.612;2023-04-30T04:21:52;6.07;;;4.63;;
11671;SDS011;5892;43.412;24.612;2023-04-30T04:24:20;9.27;;;4.70;;
11671;SDS011;5892;43.412;24.612;2023-04-30T04:26:49;4.80;;;4.33;;
11671;SDS011;5892;43.412;24.612;2023-04-30T04:29:17;10.23;;;4.77;;
11671;SDS011;5892;43.412;24.612;2023-04-30T04:31:44;7.37;;;5.30;;
11671;SDS011;5892;43.412;24.612;2023-04-30T04:34:13;8.43;;;5.63;;
11671;SDS011;5892;43.412;24.612;2023-04-30T04:36:45;8.73;;;4.60;;
11671;SDS011;5892;43.412;24.612;2023-04-30T04:39:14;5.07;;;4.20;;
11671;SDS011;5892;43.412;24.612;2023-04-30T04:41:41;6.20;;;4.10;;
11671;SDS011;5892;43.412;24.612;2023-04-30T04:44:09;6.83;;;4.27;;
11671;SDS011;5892;43.412;24.612;2023-04-30T04:46:37;5.20;;;4.70;;
11671;SDS011;5892;43.412;24.612;2023-04-30T04:49:06;6.13;;;4.80;;
11671;SDS011;5892;43.412;24.612;2023-04-30T04:51:33;6.37;;;4.80;;
11671;SDS011;5892;43.412;24.612;2023-04-30T04:54:05;5.47;;;4.53;;
11671;SDS011;5892;43.412;24.612;2023-04-30T04:56:34;8.17;;;4.87;;
11671;SDS011;5892;43.412;24.612;2023-04-30T04:59:02;8.27;;;4.80;;
11671;SDS011;5892;43.412;24.612;2023-04-30T05:01:29;8.80;;;4.90;;
11671;SDS011;5892;43.412;24.612;2023-04-30T05:03:57;5.77;;;4.80;;
11671;SDS011;5892;43.412;24.612;2023-04-30T05:06:24;7.33;;;5.17;;
11671;SDS011;5892;43.412;24.612;2023-04-30T05:08:52;6.97;;;5.03;;
11671;SDS011;5892;43.412;24.612;2023-04-30T05:11:24;7.30;;;5.10;;
11671;SDS011;5892;43.412;24.612;2023-04-30T05:13:52;7.00;;;5.17;;
11671;SDS011;5892;43.412;24.612;2023-04-30T05:16:22;10.90;;;5.93;;
11671;SDS011;5892;43.412;24.612;2023-04-30T05:18:52;8.90;;;6.03;;
11671;SDS011;5892;43.412;24.612;2023-04-30T05:21:20;9.63;;;5.67;;
11671;SDS011;5892;43.412;24.612;2023-04-30T05:23:50;8.77;;;6.23;;
11671;SDS011;5892;43.412;24.612;2023-04-30T05:26:17;9.07;;;5.67;;
11671;SDS011;5892;43.412;24.612;2023-04-30T05:28:48;9.80;;;6.43;;
11671;SDS011;5892;43.412;24.612;2023-04-30T05:31:17;10.50;;;6.60;;
11671;SDS011;5892;43.412;24.612;2023-04-30T05:33:45;9.90;;;5.97;;
11671;SDS011;5892;43.412;24.612;2023-04-30T05:36:12;10.03;;;5.80;;
11671;SDS011;5892;43.412;24.612;2023-04-30T05:38:40;8.47;;;5.20;;
11671;SDS011;5892;43.412;24.612;2023-04-30T05:41:08;8.90;;;6.07;;
11671;SDS011;5892;43.412;24.612;2023-04-30T05:43:38;8.37;;;6.00;;
11671;SDS011;5892;43.412;24.612;2023-04-30T05:46:07;7.43;;;5.50;;
11671;SDS011;5892;43.412;24.612;2023-04-30T05:48:35;8.97;;;6.10;;
11671;SDS011;5892;43.412;24.612;2023-04-30T05:51:03;8.73;;;6.27;;
11671;SDS011;5892;43.412;24.612;2023-04-30T05:53:31;9.43;;;5.90;;
11671;SDS011;5892;43.412;24.612;2023-04-30T05:55:58;7.97;;;5.67;;
11671;SDS011;5892;43.412;24.612;2023-04-30T05:58:26;9.00;;;6.33;;
11671;SDS011;5892;43.412;24.612;2023-04-30T06:00:54;9.57;;;6.27;;
11671;SDS011;5892;43.412;24.612;2023-04-30T06:03:26;8.80;;;6.63;;
11671;SDS011;5892;43.412;24.612;2023-04-30T06:05:53;8.27;;;6.43;;
11671;SDS011;5892;43.412;24.612;2023-04-30T06:08:21;7.80;;;6.00;;
11671;SDS011;5892;43.412;24.612;2023-04-30T06:10:49;6.83;;;5.57;;
11671;SDS011;5892;43.412;24.612;2023-04-30T06:13:16;8.33;;;6.37;;
11671;SDS011;5892;43.412;24.612;2023-04-30T06:15:47;10.70;;;6.20;;
11671;SDS011;5892;43.412;24.612;2023-04-30T06:18:14;6.80;;;5.10;;
11671;SDS011;5892;43.412;24.612;2023-04-30T06:20:54;6.23;;;5.13;;
11671;SDS011;5892;43.412;24.612;2023-04-30T06:23:21;7.10;;;6.13;;
11671;SDS011;5892;43.412;24.612;2023-04-30T06:25:49;8.30;;;7.13;;
11671;SDS011;5892;43.412;24.612;2023-04-30T06:28:17;15.93;;;7.53;;
11671;SDS011;5892;43.412;24.612;2023-04-30T06:30:48;6.57;;;4.77;;
11671;SDS011;5892;43.412;24.612;2023-04-30T06:33:18;6.43;;;4.80;;
11671;SDS011;5892;43.412;24.612;2023-04-30T06:35:51;6.40;;;4.90;;
11671;SDS011;5892;43.412;24.612;2023-04-30T06:38:19;10.50;;;6.13;;
11671;SDS011;5892;43.412;24.612;2023-04-30T06:40:49;8.23;;;6.70;;
11671;SDS011;5892;43.412;24.612;2023-04-30T06:43:17;7.57;;;5.43;;
11671;SDS011;5892;43.412;24.612;2023-04-30T06:45:44;7.53;;;5.70;;
11671;SDS011;5892;43.412;24.612;2023-04-30T06:48:12;6.67;;;5.23;;
11671;SDS011;5892;43.412;24.612;2023-04-30T06:50:39;10.07;;;6.97;;
11671;SDS011;5892;43.412;24.612;2023-04-30T06:53:12;7.80;;;6.50;;
11671;SDS011;5892;43.412;24.612;2023-04-30T06:55:40;5.67;;;4.60;;
11671;SDS011;5892;43.412;24.612;2023-04-30T06:58:07;5.63;;;4.03;;
11671;SDS011;5892;43.412;24.612;2023-04-30T07:00:35;5.47;;;4.00;;
11671;SDS011;5892;43.412;24.612;2023-04-30T07:03:04;6.70;;;4.50;;
11671;SDS011;5892;43.412;24.612;2023-04-30T07:05:32;6.80;;;4.37;;
11671;SDS011;5892;43.412;24.612;2023-04-30T07:08:00;6.17;;;5.10;;
11671;SDS011;5892;43.412;24.612;2023-04-30T07:10:29;6.80;;;5.53;;
11671;SDS011;5892;43.412;24.612;2023-04-30T07:12:56;8.77;;;6.40;;
11671;SDS011;5892;43.412;24.612;2023-04-30T07:15:24;9.13;;;6.10;;
11671;SDS011;5892;43.412;24.612;2023-04-30T07:17:51;11.37;;;6.47;;
11671;SDS011;5892;43.412;24.612;2023-04-30T07:20:20;8.70;;;6.67;;
11671;SDS011;5892;43.412;24.612;2023-04-30T07:22:48;8.33;;;5.40;;
11671;SDS011;5892;43.412;24.612;2023-04-30T07:25:18;7.90;;;4.90;;
11671;SDS011;5892;43.412;24.612;2023-04-30T07:27:49;7.50;;;5.30;;
11671;SDS011;5892;43.412;24.612;2023-04-30T07:30:18;6.03;;;5.10;;
11671;SDS011;5892;43.412;24.612;2023-04-30T07:32:49;6.77;;;5.40;;
11671;SDS011;5892;43.412;24.612;2023-04-30T07:35:17;6.00;;;5.17;;
11671;SDS011;5892;43.412;24.612;2023-04-30T07:37:44;6.43;;;5.30;;
11671;SDS011;5892;43.412;24.612;2023-04-30T07:40:12;7.33;;;5.50;;
11671;SDS011;5892;43.412;24.612;2023-04-30T07:42:39;16.30;;;5.13;;
11671;SDS011;5892;43.412;24.612;2023-04-30T07:45:08;8.00;;;4.57;;
11671;SDS011;5892;43.412;24.612;2023-04-30T07:47:37;5.53;;;4.87;;
11671;SDS011;5892;43.412;24.612;2023-04-30T07:50:05;6.53;;;4.20;;
11671;SDS011;5892;43.412;24.612;2023-04-30T07:52:34;5.77;;;5.17;;
11671;SDS011;5892;43.412;24.612;2023-04-30T07:55:01;10.87;;;4.90;;
11671;SDS011;5892;43.412;24.612;2023-04-30T07:57:28;7.40;;;4.23;;
11671;SDS011;5892;43.412;24.612;2023-04-30T07:59:55;6.20;;;4.03;;
11671;SDS011;5892;43.412;24.612;2023-04-30T08:02:27;4.57;;;3.70;;
11671;SDS011;5892;43.412;24.612;2023-04-30T08:04:54;7.60;;;4.10;;
11671;SDS011;5892;43.412;24.612;2023-04-30T08:07:22;4.93;;;3.50;;
11671;SDS011;5892;43.412;24.612;2023-04-30T08:09:49;4.40;;;3.10;;
11671;SDS011;5892;43.412;24.612;2023-04-30T08:12:18;5.17;;;3.07;;
11671;SDS011;5892;43.412;24.612;2023-04-30T08:14:45;3.83;;;3.40;;
11671;SDS011;5892;43.412;24.612;2023-04-30T08:17:14;4.33;;;2.90;;
11671;SDS011;5892;43.412;24.612;2023-04-30T08:19:43;8.30;;;3.20;;
11671;SDS011;5892;43.412;24.612;2023-04-30T08:22:11;3.63;;;3.00;;
11671;SDS011;5892;43.412;24.612;2023-04-30T08:24:38;4.70;;;3.00;;
11671;SDS011;5892;43.412;24.612;2023-04-30T08:27:07;7.00;;;3.00;;
11671;SDS011;5892;43.412;24.612;2023-04-30T08:29:34;4.33;;;2.60;;
11671;SDS011;5892;43.412;24.612;2023-04-30T08:32:01;4.73;;;2.97;;
11671;SDS011;5892;43.412;24.612;2023-04-30T08:34:30;5.00;;;2.87;;
11671;SDS011;5892;43.412;24.612;2023-04-30T08:36:59;4.00;;;2.80;;
11671;SDS011;5892;43.412;24.612;2023-04-30T08:39:28;6.17;;;2.80;;
11671;SDS011;5892;43.412;24.612;2023-04-30T08:41:55;4.63;;;3.60;;
11671;SDS011;5892;43.412;24.612;2023-04-30T08:44:27;5.27;;;3.23;;
11671;SDS011;5892;43.412;24.612;2023-04-30T08:46:59;4.43;;;2.97;;
11671;SDS011;5892;43.412;24.612;2023-04-30T08:49:29;4.17;;;3.17;;
11671;SDS011;5892;43.412;24.612;2023-04-30T08:52:02;4.13;;;3.20;;
11671;SDS011;5892;43.412;24.612;2023-04-30T08:54:30;5.50;;;2.40;;
11671;SDS011;5892;43.412;24.612;2023-04-30T08:57:00;3.60;;;2.60;;
11671;SDS011;5892;43.412;24.612;2023-04-30T08:59:36;6.43;;;3.00;;
11671;SDS011;5892;43.412;24.612;2023-04-30T09:02:06;5.17;;;2.57;;
11671;SDS011;5892;43.412;24.612;2023-04-30T09:04:35;3.07;;;2.40;;
11671;SDS011;5892;43.412;24.612;2023-04-30T09:07:05;6.00;;;4.20;;
11671;SDS011;5892;43.412;24.612;2023-04-30T09:09:36;5.37;;;3.00;;
11671;SDS011;5892;43.412;24.612;2023-04-30T09:12:12;4.63;;;3.77;;
11671;SDS011;5892;43.412;24.612;2023-04-30T09:14:58;4.63;;;2.97;;
11671;SDS011;5892;43.412;24.612;2023-04-30T09:17:25;4.23;;;2.90;;
11671;SDS011;5892;43.412;24.612;2023-04-30T09:19:53;7.87;;;2.93;;
11671;SDS011;5892;43.412;24.612;2023-04-30T09:22:37;3.97;;;2.93;;
11671;SDS011;5892;43.412;24.612;2023-04-30T09:25:06;3.30;;;2.53;;
11671;SDS011;5892;43.412;24.612;2023-04-30T09:27:37;3.37;;;2.70;;
11671;SDS011;5892;43.412;24.612;2023-04-30T09:30:07;4.83;;;3.10;;
11671;SDS011;5892;43.412;24.612;2023-04-30T09:32:58;4.47;;;2.80;;
11671;SDS011;5892;43.412;24.612;2023-04-30T09:35:31;7.03;;;3.00;;
11671;SDS011;5892;43.412;24.612;2023-04-30T09:38:03;5.93;;;3.27;;
11671;SDS011;5892;43.412;24.612;2023-04-30T09:40:38;5.60;;;3.00;;
11671;SDS011;5892;43.412;24.612;2023-04-30T09:43:09;4.47;;;3.10;;
11671;SDS011;5892;43.412;24.612;2023-04-30T09:45:40;5.00;;;3.70;;
11671;SDS011;5892;43.412;24.612;2023-04-30T09:48:09;4.87;;;3.10;;
11671;SDS011;5892;43.412;24.612;2023-04-30T09:50:37;5.90;;;3.13;;
11671;SDS011;5892;43.412;24.612;2023-04-30T09:53:08;4.13;;;2.70;;
11671;SDS011;5892;43.412;24.612;2023-04-30T09:55:37;4.90;;;3.17;;
11671;SDS011;5892;43.412;24.612;2023-04-30T09:58:10;6.53;;;2.70;;
11671;SDS011;5892;43.412;24.612;2023-04-30T10:00:39;3.50;;;2.30;;
11671;SDS011;5892;43.412;24.612;2023-04-30T10:03:10;3.13;;;2.43;;
11671;SDS011;5892;43.412;24.612;2023-04-30T10:05:40;5.40;;;2.40;;
11671;SDS011;5892;43.412;24.612;2023-04-30T10:08:14;3.90;;;2.53;;
11671;SDS011;5892;43.412;24.612;2023-04-30T10:10:49;3.87;;;2.30;;
11671;SDS011;5892;43.412;24.612;2023-04-30T10:13:25;4.13;;;2.50;;
11671;SDS011;5892;43.412;24.612;2023-04-30T10:15:57;3.20;;;2.40;;
11671;SDS011;5892;43.412;24.612;2023-04-30T10:18:27;6.07;;;2.70;;
11671;SDS011;5892;43.412;24.612;2023-04-30T10:20:59;3.27;;;2.70;;
11671;SDS011;5892;43.412;24.612;2023-04-30T10:23:37;3.93;;;2.50;;
11671;SDS011;5892;43.412;24.612;2023-04-30T10:26:08;5.23;;;2.90;;
11671;SDS011;5892;43.412;24.612;2023-04-30T10:28:36;5.40;;;2.70;;
11671;SDS011;5892;43.412;24.612;2023-04-30T10:31:05;6.77;;;2.70;;
11671;SDS011;5892;43.412;24.612;2023-04-30T10:33:38;2.97;;;2.50;;
11671;SDS011;5892;43.412;24.612;2023-04-30T10:36:17;2.80;;;2.60;;
11671;SDS011;5892;43.412;24.612;2023-04-30T10:38:56;3.03;;;2.73;;
11671;SDS011;5892;43.412;24.612;2023-04-30T10:41:25;3.90;;;2.90;;
11671;SDS011;5892;43.412;24.612;2023-04-30T10:43:55;4.07;;;3.10;;
11671;SDS011;5892;43.412;24.612;2023-04-30T10:46:29;3.53;;;3.20;;
11671;SDS011;5892;43.412;24.612;2023-04-30T10:49:00;4.73;;;2.90;;
11671;SDS011;5892;43.412;24.612;2023-04-30T10:51:43;3.97;;;2.80;;
11671;SDS011;5892;43.412;24.612;2023-04-30T10:54:15;3.30;;;2.97;;
11671;SDS011;5892;43.412;24.612;2023-04-30T10:56:47;6.40;;;2.83;;
11671;SDS011;5892;43.412;24.612;2023-04-30T10:59:21;4.20;;;2.87;;
11671;SDS011;5892;43.412;24.612;2023-04-30T11:01:53;5.00;;;2.90;;
11671;SDS011;5892;43.412;24.612;2023-04-30T11:04:22;4.97;;;3.03;;
11671;SDS011;5892;43.412;24.612;2023-04-30T11:07:00;11.23;;;3.17;;
11671;SDS011;5892;43.412;24.612;2023-04-30T11:09:40;4.97;;;2.80;;
11671;SDS011;5892;43.412;24.612;2023-04-30T11:12:12;6.80;;;2.70;;
11671;SDS011;5892;43.412;24.612;2023-04-30T11:14:41;3.47;;;2.50;;
11671;SDS011;5892;43.412;24.612;2023-04-30T11:17:09;2.50;;;2.30;;
11671;SDS011;5892;43.412;24.612;2023-04-30T11:19:46;5.23;;;2.90;;
11671;SDS011;5892;43.412;24.612;2023-04-30T11:22:14;4.97;;;2.87;;
11671;SDS011;5892;43.412;24.612;2023-04-30T11:25:03;2.97;;;2.50;;
11671;SDS011;5892;43.412;24.612;2023-04-30T11:27:33;5.80;;;2.60;;
11671;SDS011;5892;43.412;24.612;2023-04-30T11:30:01;3.07;;;2.50;;
11671;SDS011;5892;43.412;24.612;2023-04-30T11:32:33;5.30;;;2.60;;
11671;SDS011;5892;43.412;24.612;2023-04-30T11:35:01;2.97;;;2.63;;
11671;SDS011;5892;43.412;24.612;2023-04-30T11:37:32;3.13;;;2.33;;
11671;SDS011;5892;43.412;24.612;2023-04-30T11:40:02;4.23;;;2.43;;
11671;SDS011;5892;43.412;24.612;2023-04-30T11:42:32;2.70;;;2.20;;
11671;SDS011;5892;43.412;24.612;2023-04-30T11:45:03;3.73;;;2.77;;
11671;SDS011;5892;43.412;24.612;2023-04-30T11:47:38;3.90;;;2.70;;
11671;SDS011;5892;43.412;24.612;2023-04-30T11:50:12;5.33;;;2.50;;
11671;SDS011;5892;43.412;24.612;2023-04-30T11:52:40;4.33;;;2.67;;
11671;SDS011;5892;43.412;24.612;2023-04-30T11:55:13;8.30;;;2.60;;
11671;SDS011;5892;43.412;24.612;2023-04-30T11:57:42;5.23;;;2.60;;
11671;SDS011;5892;43.412;24.612;2023-04-30T12:00:11;8.50;;;2.60;;
11671;SDS011;5892;43.412;24.612;2023-04-30T12:02:39;5.03;;;2.70;;
11671;SDS011;5892;43.412;24.612;2023-04-30T12:05:13;4.43;;;2.83;;
11671;SDS011;5892;43.412;24.612;2023-04-30T12:07:50;3.70;;;2.40;;
11671;SDS011;5892;43.412;24.612;2023-04-30T12:10:21;3.20;;;2.20;;
11671;SDS011;5892;43.412;24.612;2023-04-30T12:12:50;7.03;;;2.20;;
11671;SDS011;5892;43.412;24.612;2023-04-30T12:15:19;5.00;;;2.67;;
11671;SDS011;5892;43.412;24.612;2023-04-30T12:17:50;3.60;;;2.60;;
11671;SDS011;5892;43.412;24.612;2023-04-30T12:20:20;2.97;;;2.50;;
11671;SDS011;5892;43.412;24.612;2023-04-30T12:22:49;3.63;;;2.70;;
11671;SDS011;5892;43.412;24.612;2023-04-30T12:25:17;4.10;;;2.83;;
11671;SDS011;5892;43.412;24.612;2023-04-30T12:27:49;3.03;;;2.47;;
11671;SDS011;5892;43.412;24.612;2023-04-30T12:30:18;3.23;;;2.60;;
11671;SDS011;5892;43.412;24.612;2023-04-30T12:32:48;3.33;;;2.73;;
11671;SDS011;5892;43.412;24.612;2023-04-30T12:35:19;2.53;;;2.20;;
11671;SDS011;5892;43.412;24.612;2023-04-30T12:37:48;4.97;;;2.53;;
11671;SDS011;5892;43.412;24.612;2023-04-30T12:40:17;3.57;;;2.27;;
11671;SDS011;5892;43.412;24.612;2023-04-30T12:42:45;4.97;;;2.30;;
11671;SDS011;5892;43.412;24.612;2023-04-30T12:48:10;2.83;;;2.33;;
11671;SDS011;5892;43.412;24.612;2023-04-30T12:50:38;3.63;;;2.50;;
11671;SDS011;5892;43.412;24.612;2023-04-30T12:53:06;2.67;;;2.40;;
11671;SDS011;5892;43.412;24.612;2023-04-30T12:55:33;3.10;;;2.40;;
11671;SDS011;5892;43.412;24.612;2023-04-30T12:58:16;3.10;;;2.37;;
11671;SDS011;5892;43.412;24.612;2023-04-30T13:00:56;2.90;;;2.20;;
11671;SDS011;5892;43.412;24.612;2023-04-30T13:03:25;3.00;;;2.50;;
11671;SDS011;5892;43.412;24.612;2023-04-30T13:05:52;2.47;;;2.10;;
11671;SDS011;5892;43.412;24.612;2023-04-30T13:08:22;3.27;;;2.20;;
11671;SDS011;5892;43.412;24.612;2023-04-30T13:10:51;4.57;;;2.07;;
11671;SDS011;5892;43.412;24.612;2023-04-30T13:13:25;4.73;;;2.40;;
11671;SDS011;5892;43.412;24.612;2023-04-30T13:15:52;4.30;;;2.23;;
11671;SDS011;5892;43.412;24.612;2023-04-30T13:18:22;2.93;;;2.00;;
11671;SDS011;5892;43.412;24.612;2023-04-30T13:21:00;3.30;;;2.00;;
11671;SDS011;5892;43.412;24.612;2023-04-30T13:23:27;2.87;;;1.90;;
11671;SDS011;5892;43.412;24.612;2023-04-30T13:25:55;2.50;;;1.70;;
11671;SDS011;5892;43.412;24.612;2023-04-30T13:28:26;2.67;;;2.00;;
11671;SDS011;5892;43.412;24.612;2023-04-30T13:30:56;2.70;;;1.93;;
11671;SDS011;5892;43.412;24.612;2023-04-30T13:33:23;2.40;;;2.10;;
11671;SDS011;5892;43.412;24.612;2023-04-30T13:35:50;3.23;;;2.07;;
11671;SDS011;5892;43.412;24.612;2023-04-30T13:38:18;4.57;;;2.17;;
11671;SDS011;5892;43.412;24.612;2023-04-30T13:40:45;2.80;;;2.23;;
11671;SDS011;5892;43.412;24.612;2023-04-30T13:43:15;3.03;;;2.23;;
11671;SDS011;5892;43.412;24.612;2023-04-30T13:45:43;3.30;;;1.90;;
11671;SDS011;5892;43.412;24.612;2023-04-30T13:48:12;4.27;;;2.20;;
11671;SDS011;5892;43.412;24.612;2023-04-30T13:50:40;3.27;;;2.40;;
11671;SDS011;5892;43.412;24.612;2023-04-30T13:53:07;4.60;;;2.20;;
11671;SDS011;5892;43.412;24.612;2023-04-30T13:55:35;4.90;;;1.77;;
11671;SDS011;5892;43.412;24.612;2023-04-30T13:58:04;7.63;;;2.50;;
11671;SDS011;5892;43.412;24.612;2023-04-30T14:00:31;3.70;;;2.27;;
11671;SDS011;5892;43.412;24.612;2023-04-30T14:03:00;3.23;;;2.20;;
11671;SDS011;5892;43.412;24.612;2023-04-30T14:05:28;2.47;;;1.97;;
11671;SDS011;5892;43.412;24.612;2023-04-30T14:07:55;3.70;;;2.17;;
11671;SDS011;5892;43.412;24.612;2023-04-30T14:10:22;2.43;;;1.93;;
11671;SDS011;5892;43.412;24.612;2023-04-30T14:12:49;2.73;;;2.10;;
11671;SDS011;5892;43.412;24.612;2023-04-30T14:15:16;2.83;;;2.10;;
11671;SDS011;5892;43.412;24.612;2023-04-30T14:17:43;2.03;;;1.90;;
11671;SDS011;5892;43.412;24.612;2023-04-30T14:20:16;2.50;;;1.93;;
11671;SDS011;5892;43.412;24.612;2023-04-30T14:22:43;2.20;;;2.00;;
11671;SDS011;5892;43.412;24.612;2023-04-30T14:25:11;2.00;;;1.70;;
11671;SDS011;5892;43.412;24.612;2023-04-30T14:27:39;3.33;;;1.83;;
11671;SDS011;5892;43.412;24.612;2023-04-30T14:30:07;2.53;;;1.57;;
11671;SDS011;5892;43.412;24.612;2023-04-30T14:32:34;3.40;;;1.70;;
11671;SDS011;5892;43.412;24.612;2023-04-30T14:35:02;1.70;;;1.60;;
11671;SDS011;5892;43.412;24.612;2023-04-30T14:37:30;2.63;;;1.63;;
11671;SDS011;5892;43.412;24.612;2023-04-30T14:39:59;2.43;;;1.40;;
11671;SDS011;5892;43.412;24.612;2023-04-30T14:42:27;2.30;;;1.47;;
11671;SDS011;5892;43.412;24.612;2023-04-30T14:44:54;4.20;;;1.70;;
11671;SDS011;5892;43.412;24.612;2023-04-30T14:47:21;2.30;;;1.60;;
11671;SDS011;5892;43.412;24.612;2023-04-30T14:49:51;1.60;;;1.30;;
11671;SDS011;5892;43.412;24.612;2023-04-30T14:52:18;2.37;;;1.50;;
11671;SDS011;5892;43.412;24.612;2023-04-30T14:54:46;3.57;;;1.30;;
11671;SDS011;5892;43.412;24.612;2023-04-30T14:57:16;2.60;;;2.20;;
11671;SDS011;5892;43.412;24.612;2023-04-30T14:59:43;1.67;;;1.20;;
11671;SDS011;5892;43.412;24.612;2023-04-30T15:02:10;2.13;;;1.30;;
11671;SDS011;5892;43.412;24.612;2023-04-30T15:04:40;1.83;;;1.57;;